sensor_id;sensor_type;location;lat;lon;timestamp;pressure;altitude;pressure_sealevel;temperature;humidity
59493;BME280;45497;43.996;22.876;2023-01-27T00:00:25;100872.16;;;2.54;66.24
59493;BME280;45497;43.996;22.876;2023-01-27T00:02:51;100876.88;;;2.49;66.32
59493;BME280;45497;43.996;22.876;2023-01-27T00:05:16;100870.38;;;2.55;66.49
59493;BME280;45497;43.996;22.876;2023-01-27T00:07:43;100875.94;;;2.50;66.53
59493;BME280;45497;43.996;22.876;2023-01-27T00:10:19;100879.91;;;2.56;66.71
59493;BME280;45497;43.996;22.876;2023-01-27T00:12:46;100878.09;;;2.56;66.43
59493;BME280;45497;43.996;22.876;2023-01-27T00:15:31;100866.22;;;2.52;66.35
59493;BME280;45497;43.996;22.876;2023-01-27T00:17:57;100869.66;;;2.53;66.38
59493;BME280;45497;43.996;22.876;2023-01-27T00:20:23;100862.50;;;2.43;66.52
59493;BME280;45497;43.996;22.876;2023-01-27T00:23:22;100855.06;;;2.37;67.08
59493;BME280;45497;43.996;22.876;2023-01-27T00:26:10;100854.84;;;2.40;67.08
59493;BME280;45497;43.996;22.876;2023-01-27T00:28:37;100853.19;;;2.39;67.29
59493;BME280;45497;43.996;22.876;2023-01-27T00:31:05;100839.25;;;2.39;67.20
59493;BME280;45497;43.996;22.876;2023-01-27T00:33:32;100843.56;;;2.40;66.95
59493;BME280;45497;43.996;22.876;2023-01-27T00:35:59;100847.34;;;2.36;67.28
59493;BME280;45497;43.996;22.876;2023-01-27T00:38:31;100844.59;;;2.37;66.97
59493;BME280;45497;43.996;22.876;2023-01-27T00:40:57;100836.94;;;2.47;66.92
59493;BME280;45497;43.996;22.876;2023-01-27T00:43:48;100840.88;;;2.53;66.67
59493;BME280;45497;43.996;22.876;2023-01-27T00:46:14;100838.25;;;2.53;66.67
59493;BME280;45497;43.996;22.876;2023-01-27T00:48:40;100836.34;;;2.55;66.32
59493;BME280;45497;43.996;22.876;2023-01-27T00:51:05;100826.09;;;2.52;66.72
59493;BME280;45497;43.996;22.876;2023-01-27T00:53:31;100826.22;;;2.50;66.80
59493;BME280;45497;43.996;22.876;2023-01-27T00:55:57;100828.72;;;2.52;66.81
59493;BME280;45497;43.996;22.876;2023-01-27T00:58:26;100815.75;;;2.50;66.58
59493;BME280;45497;43.996;22.876;2023-01-27T01:00:56;100818.44;;;2.37;67.15
59493;BME280;45497;43.996;22.876;2023-01-27T01:03:24;100816.53;;;2.39;67.39
59493;BME280;45497;43.996;22.876;2023-01-27T01:05:50;100816.53;;;2.39;67.33
59493;BME280;45497;43.996;22.876;2023-01-27T01:08:16;100818.13;;;2.42;67.18
59493;BME280;45497;43.996;22.876;2023-01-27T01:10:41;100808.84;;;2.38;67.38
59493;BME280;45497;43.996;22.876;2023-01-27T01:13:07;100806.94;;;2.40;66.94
59493;BME280;45497;43.996;22.876;2023-01-27T01:15:37;100818.97;;;2.54;67.06
59493;BME280;45497;43.996;22.876;2023-01-27T01:18:03;100820.31;;;2.59;66.72
59493;BME280;45497;43.996;22.876;2023-01-27T01:20:29;100824.09;;;2.66;66.56
59493;BME280;45497;43.996;22.876;2023-01-27T01:22:54;100819.94;;;2.53;67.11
59493;BME280;45497;43.996;22.876;2023-01-27T01:25:21;100817.75;;;2.46;67.29
59493;BME280;45497;43.996;22.876;2023-01-27T01:27:47;100822.94;;;2.59;66.89
59493;BME280;45497;43.996;22.876;2023-01-27T01:30:12;100816.34;;;2.54;66.98
59493;BME280;45497;43.996;22.876;2023-01-27T01:32:38;100814.59;;;2.54;67.06
59493;BME280;45497;43.996;22.876;2023-01-27T01:35:04;100819.22;;;2.51;67.03
59493;BME280;45497;43.996;22.876;2023-01-27T01:37:29;100813.50;;;2.57;67.01
59493;BME280;45497;43.996;22.876;2023-01-27T01:39:55;100804.59;;;2.59;66.75
59493;BME280;45497;43.996;22.876;2023-01-27T01:42:20;100818.88;;;2.66;66.59
59493;BME280;45497;43.996;22.876;2023-01-27T01:44:45;100805.44;;;2.60;66.41
59493;BME280;45497;43.996;22.876;2023-01-27T01:47:16;100802.81;;;2.60;66.79
59493;BME280;45497;43.996;22.876;2023-01-27T01:49:43;100789.72;;;2.60;66.71
59493;BME280;45497;43.996;22.876;2023-01-27T01:52:13;100802.81;;;2.60;66.82
59493;BME280;45497;43.996;22.876;2023-01-27T01:54:46;100791.16;;;2.53;66.70
59493;BME280;45497;43.996;22.876;2023-01-27T01:57:27;100796.00;;;2.46;67.06
59493;BME280;45497;43.996;22.876;2023-01-27T02:00:03;100806.34;;;2.47;67.23
59493;BME280;45497;43.996;22.876;2023-01-27T02:02:32;100788.41;;;2.54;67.12
59493;BME280;45497;43.996;22.876;2023-01-27T02:05:06;100795.47;;;2.65;66.47
59493;BME280;45497;43.996;22.876;2023-01-27T02:07:44;100787.84;;;2.62;66.31
59493;BME280;45497;43.996;22.876;2023-01-27T02:10:12;100787.34;;;2.68;66.53
59493;BME280;45497;43.996;22.876;2023-01-27T02:12:37;100779.03;;;2.63;66.56
59493;BME280;45497;43.996;22.876;2023-01-27T02:15:04;100782.59;;;2.62;66.36
59493;BME280;45497;43.996;22.876;2023-01-27T02:17:30;100782.59;;;2.62;66.37
59493;BME280;45497;43.996;22.876;2023-01-27T02:28:03;100783.78;;;2.58;66.83
59493;BME280;45497;43.996;22.876;2023-01-27T02:30:30;100785.44;;;2.47;66.66
59493;BME280;45497;43.996;22.876;2023-01-27T02:32:55;100787.56;;;2.54;66.77
59493;BME280;45497;43.996;22.876;2023-01-27T02:35:38;100778.88;;;2.53;66.89
59493;BME280;45497;43.996;22.876;2023-01-27T02:38:06;100771.16;;;2.52;66.94
59493;BME280;45497;43.996;22.876;2023-01-27T02:40:33;100777.97;;;2.65;66.54
59493;BME280;45497;43.996;22.876;2023-01-27T02:43:03;100777.72;;;2.68;66.21
59493;BME280;45497;43.996;22.876;2023-01-27T02:45:29;100767.13;;;2.70;66.46
59493;BME280;45497;43.996;22.876;2023-01-27T02:47:54;100766.28;;;2.70;66.25
59493;BME280;45497;43.996;22.876;2023-01-27T02:50:20;100777.97;;;2.77;66.33
59493;BME280;45497;43.996;22.876;2023-01-27T02:52:45;100763.94;;;2.78;65.99
59493;BME280;45497;43.996;22.876;2023-01-27T02:55:10;100769.88;;;2.80;66.14
59493;BME280;45497;43.996;22.876;2023-01-27T02:57:36;100748.56;;;2.73;65.93
59493;BME280;45497;43.996;22.876;2023-01-27T03:00:02;100752.63;;;2.77;65.95
59493;BME280;45497;43.996;22.876;2023-01-27T03:02:28;100747.53;;;2.76;66.11
59493;BME280;45497;43.996;22.876;2023-01-27T03:04:55;100743.59;;;2.81;66.00
59493;BME280;45497;43.996;22.876;2023-01-27T03:07:22;100734.44;;;2.76;66.13
59493;BME280;45497;43.996;22.876;2023-01-27T03:09:47;100742.13;;;2.77;65.78
59493;BME280;45497;43.996;22.876;2023-01-27T03:12:13;100733.69;;;2.74;65.88
59493;BME280;45497;43.996;22.876;2023-01-27T03:14:44;100728.34;;;2.75;65.76
59493;BME280;45497;43.996;22.876;2023-01-27T03:17:28;100734.19;;;2.67;65.99
59493;BME280;45497;43.996;22.876;2023-01-27T03:20:12;100726.78;;;2.50;66.94
59493;BME280;45497;43.996;22.876;2023-01-27T03:22:37;100714.06;;;2.45;67.04
59493;BME280;45497;43.996;22.876;2023-01-27T03:25:03;100719.63;;;2.41;67.18
59493;BME280;45497;43.996;22.876;2023-01-27T03:27:29;100714.19;;;2.44;67.31
59493;BME280;45497;43.996;22.876;2023-01-27T03:29:54;100719.53;;;2.54;67.32
59493;BME280;45497;43.996;22.876;2023-01-27T03:32:24;100708.59;;;2.48;67.04
59493;BME280;45497;43.996;22.876;2023-01-27T03:34:50;100717.13;;;2.39;67.13
59493;BME280;45497;43.996;22.876;2023-01-27T03:37:16;100699.19;;;2.35;67.41
59493;BME280;45497;43.996;22.876;2023-01-27T03:40:00;100715.38;;;2.40;67.32
59493;BME280;45497;43.996;22.876;2023-01-27T03:42:44;100708.59;;;2.60;66.85
59493;BME280;45497;43.996;22.876;2023-01-27T03:45:28;100715.97;;;2.43;67.19
59493;BME280;45497;43.996;22.876;2023-01-27T03:48:12;100706.09;;;2.47;67.39
59493;BME280;45497;43.996;22.876;2023-01-27T03:50:38;100712.97;;;2.48;67.37
59493;BME280;45497;43.996;22.876;2023-01-27T03:53:08;100697.78;;;2.53;67.05
59493;BME280;45497;43.996;22.876;2023-01-27T03:55:35;100705.41;;;2.56;66.67
59493;BME280;45497;43.996;22.876;2023-01-27T03:58:01;100711.44;;;2.57;66.64
59493;BME280;45497;43.996;22.876;2023-01-27T04:00:43;100722.75;;;2.46;66.82
59493;BME280;45497;43.996;22.876;2023-01-27T04:03:09;100720.38;;;2.54;67.21
59493;BME280;45497;43.996;22.876;2023-01-27T04:05:53;100721.09;;;2.67;66.68
59493;BME280;45497;43.996;22.876;2023-01-27T04:08:37;100722.88;;;2.67;66.45
59493;BME280;45497;43.996;22.876;2023-01-27T04:11:03;100715.25;;;2.64;66.94
59493;BME280;45497;43.996;22.876;2023-01-27T04:13:47;100719.53;;;2.54;67.00
59493;BME280;45497;43.996;22.876;2023-01-27T04:16:13;100728.72;;;2.59;66.94
59493;BME280;45497;43.996;22.876;2023-01-27T04:18:38;100723.72;;;2.67;66.85
59493;BME280;45497;43.996;22.876;2023-01-27T04:21:04;100714.44;;;2.63;66.74
59493;BME280;45497;43.996;22.876;2023-01-27T04:23:29;100720.13;;;2.57;66.66
59493;BME280;45497;43.996;22.876;2023-01-27T04:25:55;100716.34;;;2.61;66.78
59493;BME280;45497;43.996;22.876;2023-01-27T04:28:21;100725.84;;;2.74;66.57
59493;BME280;45497;43.996;22.876;2023-01-27T04:30:47;100711.22;;;2.60;66.81
59493;BME280;45497;43.996;22.876;2023-01-27T04:33:13;100717.75;;;2.54;66.87
59493;BME280;45497;43.996;22.876;2023-01-27T04:35:43;100718.00;;;2.62;67.03
59493;BME280;45497;43.996;22.876;2023-01-27T04:38:09;100720.38;;;2.65;66.74
59493;BME280;45497;43.996;22.876;2023-01-27T04:40:35;100722.88;;;2.56;66.98
59493;BME280;45497;43.996;22.876;2023-01-27T04:43:00;100718.72;;;2.53;66.82
59493;BME280;45497;43.996;22.876;2023-01-27T04:45:26;100715.84;;;2.56;66.92
59493;BME280;45497;43.996;22.876;2023-01-27T04:47:51;100716.91;;;2.42;67.04
59493;BME280;45497;43.996;22.876;2023-01-27T04:50:17;100707.97;;;2.34;67.64
59493;BME280;45497;43.996;22.876;2023-01-27T04:52:43;100708.22;;;2.31;67.43
59493;BME280;45497;43.996;22.876;2023-01-27T04:55:09;100719.91;;;2.38;67.60
59493;BME280;45497;43.996;22.876;2023-01-27T04:57:35;100706.44;;;2.31;67.47
59493;BME280;45497;43.996;22.876;2023-01-27T05:00:02;100715.69;;;2.24;67.77
59493;BME280;45497;43.996;22.876;2023-01-27T05:02:28;100722.25;;;2.29;68.02
59493;BME280;45497;43.996;22.876;2023-01-27T05:04:54;100725.78;;;2.28;67.87
59493;BME280;45497;43.996;22.876;2023-01-27T05:07:19;100723.78;;;2.32;67.93
59493;BME280;45497;43.996;22.876;2023-01-27T05:09:44;100726.28;;;2.34;67.78
59493;BME280;45497;43.996;22.876;2023-01-27T05:12:10;100731.63;;;2.32;67.69
59493;BME280;45497;43.996;22.876;2023-01-27T05:14:35;100729.28;;;2.29;67.70
59493;BME280;45497;43.996;22.876;2023-01-27T05:17:01;100721.91;;;2.34;67.83
59493;BME280;45497;43.996;22.876;2023-01-27T05:19:26;100722.50;;;2.38;67.84
59493;BME280;45497;43.996;22.876;2023-01-27T05:21:52;100737.13;;;2.52;67.30
59493;BME280;45497;43.996;22.876;2023-01-27T05:24:17;100730.81;;;2.32;67.27
59493;BME280;45497;43.996;22.876;2023-01-27T05:26:43;100745.78;;;2.29;67.88
59493;BME280;45497;43.996;22.876;2023-01-27T05:29:08;100764.22;;;2.28;68.16
59493;BME280;45497;43.996;22.876;2023-01-27T05:31:34;100742.84;;;2.34;67.81
59493;BME280;45497;43.996;22.876;2023-01-27T05:34:00;100759.59;;;2.43;67.57
59493;BME280;45497;43.996;22.876;2023-01-27T05:36:27;100758.66;;;2.44;67.59
59493;BME280;45497;43.996;22.876;2023-01-27T05:38:54;100752.72;;;2.53;67.42
59493;BME280;45497;43.996;22.876;2023-01-27T05:41:20;100763.44;;;2.61;67.28
59493;BME280;45497;43.996;22.876;2023-01-27T05:43:51;100770.34;;;2.62;67.07
59493;BME280;45497;43.996;22.876;2023-01-27T05:46:19;100774.25;;;2.57;67.08
59493;BME280;45497;43.996;22.876;2023-01-27T05:48:47;100772.63;;;2.67;67.29
59493;BME280;45497;43.996;22.876;2023-01-27T05:51:14;100761.88;;;2.59;66.86
59493;BME280;45497;43.996;22.876;2023-01-27T05:53:41;100766.28;;;2.47;67.54
59493;BME280;45497;43.996;22.876;2023-01-27T05:56:08;100771.41;;;2.60;67.14
59493;BME280;45497;43.996;22.876;2023-01-27T05:58:35;100766.88;;;2.51;67.19
59493;BME280;45497;43.996;22.876;2023-01-27T06:01:09;100769.72;;;2.36;67.66
59493;BME280;45497;43.996;22.876;2023-01-27T06:03:35;100765.44;;;2.46;67.72
59493;BME280;45497;43.996;22.876;2023-01-27T06:06:00;100777.09;;;2.42;67.42
59493;BME280;45497;43.996;22.876;2023-01-27T06:08:26;100764.97;;;2.41;67.64
59493;BME280;45497;43.996;22.876;2023-01-27T06:10:52;100776.75;;;2.58;67.21
59493;BME280;45497;43.996;22.876;2023-01-27T06:13:20;100784.94;;;2.54;67.12
59493;BME280;45497;43.996;22.876;2023-01-27T06:15:46;100779.25;;;2.48;67.31
59493;BME280;45497;43.996;22.876;2023-01-27T06:18:14;100769.13;;;2.44;67.42
59493;BME280;45497;43.996;22.876;2023-01-27T06:20:40;100774.16;;;2.58;67.33
59493;BME280;45497;43.996;22.876;2023-01-27T06:23:07;100764.28;;;2.62;66.69
59493;BME280;45497;43.996;22.876;2023-01-27T06:25:37;100772.84;;;2.64;66.81
59493;BME280;45497;43.996;22.876;2023-01-27T06:28:03;100768.09;;;2.58;67.07
59493;BME280;45497;43.996;22.876;2023-01-27T06:30:28;100763.56;;;2.71;66.77
59493;BME280;45497;43.996;22.876;2023-01-27T06:32:54;100766.19;;;2.82;66.69
59493;BME280;45497;43.996;22.876;2023-01-27T06:35:20;100753.59;;;2.76;66.23
59493;BME280;45497;43.996;22.876;2023-01-27T06:37:45;100760.00;;;2.72;66.45
59493;BME280;45497;43.996;22.876;2023-01-27T06:40:11;100756.06;;;2.66;66.86
59493;BME280;45497;43.996;22.876;2023-01-27T06:42:37;100749.78;;;2.69;66.70
59493;BME280;45497;43.996;22.876;2023-01-27T06:45:02;100748.47;;;2.63;66.57
59493;BME280;45497;43.996;22.876;2023-01-27T06:47:28;100756.41;;;2.51;66.88
59493;BME280;45497;43.996;22.876;2023-01-27T06:49:53;100766.50;;;2.55;67.31
59493;BME280;45497;43.996;22.876;2023-01-27T06:52:19;100770.53;;;2.48;67.05
59493;BME280;45497;43.996;22.876;2023-01-27T06:54:44;100775.66;;;2.38;67.70
59493;BME280;45497;43.996;22.876;2023-01-27T06:57:10;100779.09;;;2.39;67.79
59493;BME280;45497;43.996;22.876;2023-01-27T06:59:35;100770.41;;;2.38;68.02
59493;BME280;45497;43.996;22.876;2023-01-27T07:02:01;100772.81;;;2.53;67.56
59493;BME280;45497;43.996;22.876;2023-01-27T07:04:26;100770.59;;;2.59;67.12
59493;BME280;45497;43.996;22.876;2023-01-27T07:06:53;100761.41;;;2.54;67.18
59493;BME280;45497;43.996;22.876;2023-01-27T07:09:19;100758.94;;;2.52;67.11
59493;BME280;45497;43.996;22.876;2023-01-27T07:11:44;100776.75;;;2.58;67.08
59493;BME280;45497;43.996;22.876;2023-01-27T07:14:10;100771.75;;;2.66;67.28
59493;BME280;45497;43.996;22.876;2023-01-27T07:16:35;100761.66;;;2.73;66.91
59493;BME280;45497;43.996;22.876;2023-01-27T07:21:45;100779.25;;;2.60;67.24
59493;BME280;45497;43.996;22.876;2023-01-27T07:24:10;100765.69;;;2.55;67.39
59493;BME280;45497;43.996;22.876;2023-01-27T07:26:36;100765.69;;;2.55;67.39
59493;BME280;45497;43.996;22.876;2023-01-27T07:29:01;100777.13;;;2.65;67.65
59493;BME280;45497;43.996;22.876;2023-01-27T07:31:27;100769.75;;;2.70;67.19
59493;BME280;45497;43.996;22.876;2023-01-27T07:33:52;100772.72;;;2.65;67.15
59493;BME280;45497;43.996;22.876;2023-01-27T07:36:18;100773.66;;;2.64;67.06
59493;BME280;45497;43.996;22.876;2023-01-27T07:38:44;100786.31;;;2.71;66.84
59493;BME280;45497;43.996;22.876;2023-01-27T07:41:09;100779.03;;;2.74;66.99
59493;BME280;45497;43.996;22.876;2023-01-27T07:43:35;100789.25;;;2.77;66.74
59493;BME280;45497;43.996;22.876;2023-01-27T07:46:01;100779.53;;;2.79;66.74
59493;BME280;45497;43.996;22.876;2023-01-27T07:48:26;100784.16;;;2.87;66.57
59493;BME280;45497;43.996;22.876;2023-01-27T07:50:52;100788.09;;;2.93;66.44
59493;BME280;45497;43.996;22.876;2023-01-27T07:53:17;100790.59;;;3.05;66.13
59493;BME280;45497;43.996;22.876;2023-01-27T07:55:43;100784.38;;;2.95;66.53
59493;BME280;45497;43.996;22.876;2023-01-27T07:58:08;100793.09;;;2.96;66.53
59493;BME280;45497;43.996;22.876;2023-01-27T08:00:34;100795.13;;;2.92;65.93
59493;BME280;45497;43.996;22.876;2023-01-27T08:03:01;100784.66;;;2.92;66.44
59493;BME280;45497;43.996;22.876;2023-01-27T08:05:27;100797.03;;;3.01;66.21
59493;BME280;45497;43.996;22.876;2023-01-27T08:07:54;100805.72;;;3.02;66.05
59493;BME280;45497;43.996;22.876;2023-01-27T08:10:20;100803.81;;;3.04;66.34
59493;BME280;45497;43.996;22.876;2023-01-27T08:12:46;100802.75;;;3.06;66.11
59493;BME280;45497;43.996;22.876;2023-01-27T08:15:12;100794.88;;;2.95;66.01
59493;BME280;45497;43.996;22.876;2023-01-27T08:17:38;100801.31;;;2.91;66.22
59493;BME280;45497;43.996;22.876;2023-01-27T08:20:04;100804.78;;;3.03;66.15
59493;BME280;45497;43.996;22.876;2023-01-27T08:22:30;100799.28;;;2.95;65.96
59493;BME280;45497;43.996;22.876;2023-01-27T08:24:56;100806.44;;;2.93;66.15
59493;BME280;45497;43.996;22.876;2023-01-27T08:27:21;100794.16;;;2.93;66.01
59493;BME280;45497;43.996;22.876;2023-01-27T08:29:47;100800.59;;;3.00;66.05
59493;BME280;45497;43.996;22.876;2023-01-27T08:32:12;100799.75;;;3.11;65.83
59493;BME280;45497;43.996;22.876;2023-01-27T08:34:39;100807.00;;;3.08;65.92
59493;BME280;45497;43.996;22.876;2023-01-27T08:37:05;100800.59;;;3.00;65.98
59493;BME280;45497;43.996;22.876;2023-01-27T08:39:31;100799.16;;;3.08;65.85
59493;BME280;45497;43.996;22.876;2023-01-27T08:41:57;100798.59;;;3.15;65.77
59493;BME280;45497;43.996;22.876;2023-01-27T08:44:22;100807.16;;;3.17;65.73
59493;BME280;45497;43.996;22.876;2023-01-27T08:46:48;100806.78;;;3.22;65.59
59493;BME280;45497;43.996;22.876;2023-01-27T08:49:14;100808.56;;;3.21;65.72
59493;BME280;45497;43.996;22.876;2023-01-27T08:51:40;100807.72;;;3.10;65.78
59493;BME280;45497;43.996;22.876;2023-01-27T08:54:06;100801.19;;;3.15;66.07
59493;BME280;45497;43.996;22.876;2023-01-27T08:56:32;100806.66;;;3.12;65.49
59493;BME280;45497;43.996;22.876;2023-01-27T08:58:58;100813.22;;;3.18;66.63
59493;BME280;45497;43.996;22.876;2023-01-27T09:01:24;100807.75;;;3.21;66.77
59493;BME280;45497;43.996;22.876;2023-01-27T09:03:50;100813.34;;;3.05;66.49
59493;BME280;45497;43.996;22.876;2023-01-27T09:06:15;100808.81;;;3.07;66.04
59493;BME280;45497;43.996;22.876;2023-01-27T09:08:41;100821.78;;;3.20;66.92
59493;BME280;45497;43.996;22.876;2023-01-27T09:11:13;100809.41;;;3.11;66.08
59493;BME280;45497;43.996;22.876;2023-01-27T09:13:39;100808.56;;;3.21;65.67
59493;BME280;45497;43.996;22.876;2023-01-27T09:16:05;100800.47;;;3.24;65.39
59493;BME280;45497;43.996;22.876;2023-01-27T09:18:31;100807.13;;;3.29;65.33
59493;BME280;45497;43.996;22.876;2023-01-27T09:20:56;100804.53;;;3.17;65.98
59493;BME280;45497;43.996;22.876;2023-01-27T09:23:22;100814.41;;;3.14;65.62
59493;BME280;45497;43.996;22.876;2023-01-27T09:25:48;100799.41;;;3.27;65.88
59493;BME280;45497;43.996;22.876;2023-01-27T09:28:14;100802.97;;;3.37;65.41
59493;BME280;45497;43.996;22.876;2023-01-27T09:30:45;100800.56;;;3.45;65.26
59493;BME280;45497;43.996;22.876;2023-01-27T09:33:14;100793.78;;;3.20;65.50
59493;BME280;45497;43.996;22.876;2023-01-27T09:35:53;100793.09;;;3.18;65.53
59493;BME280;45497;43.996;22.876;2023-01-27T09:38:22;100792.16;;;3.19;65.70
59493;BME280;45497;43.996;22.876;2023-01-27T09:40:57;100783.09;;;3.23;65.46
59493;BME280;45497;43.996;22.876;2023-01-27T09:43:34;100785.22;;;3.18;65.68
59493;BME280;45497;43.996;22.876;2023-01-27T09:48:51;100779.97;;;3.41;65.57
59493;BME280;45497;43.996;22.876;2023-01-27T09:54:28;100777.00;;;3.34;65.08
59493;BME280;45497;43.996;22.876;2023-01-27T09:57:12;100774.34;;;3.45;65.23
59493;BME280;45497;43.996;22.876;2023-01-27T10:02:37;100772.91;;;3.53;64.93
59493;BME280;45497;43.996;22.876;2023-01-27T10:29:38;100741.28;;;3.33;65.97
59493;BME280;45497;43.996;22.876;2023-01-27T10:32:29;100740.66;;;3.41;66.04
59493;BME280;45497;43.996;22.876;2023-01-27T10:35:24;100735.50;;;3.51;65.91
59493;BME280;45497;43.996;22.876;2023-01-27T10:41:03;100735.78;;;3.48;65.40
59493;BME280;45497;43.996;22.876;2023-01-27T10:52:18;100735.81;;;3.25;66.19
59493;BME280;45497;43.996;22.876;2023-01-27T10:54:56;100727.38;;;3.21;66.48
59493;BME280;45497;43.996;22.876;2023-01-27T10:57:29;100717.34;;;3.27;66.15
59493;BME280;45497;43.996;22.876;2023-01-27T11:00:01;100719.38;;;3.23;66.12
59493;BME280;45497;43.996;22.876;2023-01-27T11:02:42;100716.97;;;3.31;65.96
59493;BME280;45497;43.996;22.876;2023-01-27T11:08:23;100715.78;;;3.24;66.11
59493;BME280;45497;43.996;22.876;2023-01-27T11:10:56;100710.78;;;3.32;66.44
59493;BME280;45497;43.996;22.876;2023-01-27T11:13:43;100719.00;;;3.39;65.90
59493;BME280;45497;43.996;22.876;2023-01-27T11:16:19;100713.13;;;3.47;65.72
59493;BME280;45497;43.996;22.876;2023-01-27T11:18:53;100699.16;;;3.57;65.67
59493;BME280;45497;43.996;22.876;2023-01-27T11:21:25;100704.16;;;3.60;65.43
59493;BME280;45497;43.996;22.876;2023-01-27T11:23:53;100701.44;;;3.51;65.51
59493;BME280;45497;43.996;22.876;2023-01-27T11:26:39;100704.31;;;3.48;65.84
59493;BME280;45497;43.996;22.876;2023-01-27T11:37:34;100696.03;;;3.63;65.55
59493;BME280;45497;43.996;22.876;2023-01-27T11:40:01;100710.16;;;3.72;65.66
59493;BME280;45497;43.996;22.876;2023-01-27T11:42:32;100707.81;;;3.69;65.57
59493;BME280;45497;43.996;22.876;2023-01-27T11:44:59;100704.56;;;3.77;65.29
59493;BME280;45497;43.996;22.876;2023-01-27T11:47:33;100697.41;;;3.79;65.25
59493;BME280;45497;43.996;22.876;2023-01-27T11:50:01;100711.34;;;3.79;65.26
59493;BME280;45497;43.996;22.876;2023-01-27T11:52:28;100704.91;;;3.83;65.42
59493;BME280;45497;43.996;22.876;2023-01-27T11:57:41;100703.03;;;3.95;65.16
59493;BME280;45497;43.996;22.876;2023-01-27T12:03:06;100699.00;;;3.91;64.42
59493;BME280;45497;43.996;22.876;2023-01-27T12:05:41;100692.84;;;3.81;64.86
59493;BME280;45497;43.996;22.876;2023-01-27T12:08:07;100695.88;;;3.76;65.07
59493;BME280;45497;43.996;22.876;2023-01-27T12:10:34;100709.56;;;3.80;65.00
59493;BME280;45497;43.996;22.876;2023-01-27T12:13:15;100701.19;;;3.86;65.40
59493;BME280;45497;43.996;22.876;2023-01-27T12:15:52;100700.16;;;3.77;65.46
59493;BME280;45497;43.996;22.876;2023-01-27T12:18:20;100702.00;;;3.87;65.18
59493;BME280;45497;43.996;22.876;2023-01-27T12:20:55;100694.66;;;4.01;65.01
59493;BME280;45497;43.996;22.876;2023-01-27T12:23:39;100704.56;;;3.98;64.82
59493;BME280;45497;43.996;22.876;2023-01-27T12:26:11;100704.88;;;4.05;64.78
59493;BME280;45497;43.996;22.876;2023-01-27T12:28:48;100709.03;;;3.86;64.97
59493;BME280;45497;43.996;22.876;2023-01-27T12:31:32;100709.16;;;3.85;65.00
59493;BME280;45497;43.996;22.876;2023-01-27T12:34:17;100707.94;;;3.89;64.60
59493;BME280;45497;43.996;22.876;2023-01-27T12:36:44;100703.50;;;4.00;64.60
59493;BME280;45497;43.996;22.876;2023-01-27T12:39:41;100713.06;;;3.90;64.56
59493;BME280;45497;43.996;22.876;2023-01-27T12:42:46;100708.75;;;4.00;64.86
59493;BME280;45497;43.996;22.876;2023-01-27T12:45:27;100705.34;;;4.10;64.54
59493;BME280;45497;43.996;22.876;2023-01-27T12:50:44;100711.03;;;4.15;64.76
59493;BME280;45497;43.996;22.876;2023-01-27T12:53:21;100708.59;;;4.23;64.42
59493;BME280;45497;43.996;22.876;2023-01-27T12:58:27;100710.97;;;4.05;64.33
59493;BME280;45497;43.996;22.876;2023-01-27T13:00:54;100711.69;;;4.07;64.63
59493;BME280;45497;43.996;22.876;2023-01-27T13:03:20;100710.22;;;4.14;64.88
59493;BME280;45497;43.996;22.876;2023-01-27T13:05:46;100718.72;;;4.28;64.45
59493;BME280;45497;43.996;22.876;2023-01-27T13:08:17;100704.31;;;4.22;64.58
59493;BME280;45497;43.996;22.876;2023-01-27T13:10:57;100700.66;;;4.34;64.16
59493;BME280;45497;43.996;22.876;2023-01-27T13:13:26;100715.88;;;4.40;63.43
59493;BME280;45497;43.996;22.876;2023-01-27T13:16:03;100720.00;;;4.33;63.87
59493;BME280;45497;43.996;22.876;2023-01-27T13:18:34;100707.06;;;4.20;63.80
59493;BME280;45497;43.996;22.876;2023-01-27T13:21:18;100708.16;;;4.18;64.22
59493;BME280;45497;43.996;22.876;2023-01-27T13:23:47;100718.34;;;4.32;63.89
59493;BME280;45497;43.996;22.876;2023-01-27T13:26:17;100715.88;;;4.40;63.88
59493;BME280;45497;43.996;22.876;2023-01-27T13:32:24;100722.41;;;4.46;63.83
59493;BME280;45497;43.996;22.876;2023-01-27T13:37:31;100729.25;;;4.37;63.73
59493;BME280;45497;43.996;22.876;2023-01-27T13:42:42;100731.84;;;4.28;63.78
59493;BME280;45497;43.996;22.876;2023-01-27T13:50:15;100730.84;;;4.50;63.63
59493;BME280;45497;43.996;22.876;2023-01-27T13:52:51;100739.03;;;4.56;63.37
59493;BME280;45497;43.996;22.876;2023-01-27T13:55:25;100750.66;;;4.54;63.61
59493;BME280;45497;43.996;22.876;2023-01-27T13:58:12;100747.03;;;4.55;63.23
59493;BME280;45497;43.996;22.876;2023-01-27T14:00:56;100743.72;;;4.53;63.24
59493;BME280;45497;43.996;22.876;2023-01-27T14:03:34;100738.69;;;4.40;63.54
59493;BME280;45497;43.996;22.876;2023-01-27T14:09:36;100744.38;;;4.45;63.57
59493;BME280;45497;43.996;22.876;2023-01-27T14:12:23;100746.44;;;4.42;63.42
59493;BME280;45497;43.996;22.876;2023-01-27T14:31:28;100762.50;;;4.27;63.56
59493;BME280;45497;43.996;22.876;2023-01-27T14:36:58;100769.41;;;4.28;63.11
59493;BME280;45497;43.996;22.876;2023-01-27T14:39:51;100760.81;;;4.26;63.65
59493;BME280;45497;43.996;22.876;2023-01-27T14:42:31;100760.81;;;4.26;63.56
59493;BME280;45497;43.996;22.876;2023-01-27T14:47:37;100769.66;;;4.25;64.01
59493;BME280;45497;43.996;22.876;2023-01-27T15:06:27;100764.47;;;4.35;63.59
59493;BME280;45497;43.996;22.876;2023-01-27T15:09:17;100772.34;;;4.35;63.20
59493;BME280;45497;43.996;22.876;2023-01-27T15:11:59;100773.94;;;4.26;63.65
59493;BME280;45497;43.996;22.876;2023-01-27T15:25:36;100773.84;;;3.95;64.38
59493;BME280;45497;43.996;22.876;2023-01-27T15:28:03;100783.88;;;3.90;64.81